sensor_id;sensor_type;location;lat;lon;timestamp;P1;durP1;ratioP1;P2;durP2;ratioP2
32172;SDS011;18679;45.190;5.722;2022-11-09T00:02:56;2.05;;;1.10;;
32172;SDS011;18679;45.190;5.722;2022-11-09T00:05:57;3.63;;;1.20;;
32172;SDS011;18679;45.190;5.722;2022-11-09T00:08:59;7.25;;;1.40;;
32172;SDS011;18679;45.190;5.722;2022-11-09T00:12:02;2.58;;;1.30;;
32172;SDS011;18679;45.190;5.722;2022-11-09T00:15:04;4.50;;;1.40;;
32172;SDS011;18679;45.190;5.722;2022-11-09T00:18:05;2.17;;;1.25;;
32172;SDS011;18679;45.190;5.722;2022-11-09T00:21:07;1.90;;;0.95;;
32172;SDS011;18679;45.190;5.722;2022-11-09T00:24:09;4.03;;;0.98;;
32172;SDS011;18679;45.190;5.722;2022-11-09T00:27:12;1.92;;;0.60;;
32172;SDS011;18679;45.190;5.722;2022-11-09T00:30:13;2.33;;;1.00;;
32172;SDS011;18679;45.190;5.722;2022-11-09T00:33:14;1.92;;;0.93;;
32172;SDS011;18679;45.190;5.722;2022-11-09T00:36:17;1.80;;;0.80;;
32172;SDS011;18679;45.190;5.722;2022-11-09T00:39:18;1.98;;;0.80;;
32172;SDS011;18679;45.190;5.722;2022-11-09T00:42:19;1.10;;;0.70;;
32172;SDS011;18679;45.190;5.722;2022-11-09T00:45:20;5.75;;;0.90;;
32172;SDS011;18679;45.190;5.722;2022-11-09T00:48:21;5.00;;;1.10;;
32172;SDS011;18679;45.190;5.722;2022-11-09T00:51:23;2.75;;;0.75;;
32172;SDS011;18679;45.190;5.722;2022-11-09T00:54:24;1.15;;;0.60;;
32172;SDS011;18679;45.190;5.722;2022-11-09T00:57:26;6.72;;;1.23;;
32172;SDS011;18679;45.190;5.722;2022-11-09T01:00:27;6.07;;;1.05;;
32172;SDS011;18679;45.190;5.722;2022-11-09T01:03:28;4.20;;;0.90;;
32172;SDS011;18679;45.190;5.722;2022-11-09T01:06:30;2.25;;;0.60;;
32172;SDS011;18679;45.190;5.722;2022-11-09T01:09:31;2.42;;;0.65;;
32172;SDS011;18679;45.190;5.722;2022-11-09T01:12:32;4.05;;;1.23;;
32172;SDS011;18679;45.190;5.722;2022-11-09T01:15:33;2.83;;;0.80;;
32172;SDS011;18679;45.190;5.722;2022-11-09T01:18:36;0.60;;;0.38;;
32172;SDS011;18679;45.190;5.722;2022-11-09T01:21:38;5.43;;;1.00;;
32172;SDS011;18679;45.190;5.722;2022-11-09T01:24:40;0.73;;;0.40;;
32172;SDS011;18679;45.190;5.722;2022-11-09T01:27:41;2.17;;;0.73;;
32172;SDS011;18679;45.190;5.722;2022-11-09T01:30:42;0.47;;;0.47;;
32172;SDS011;18679;45.190;5.722;2022-11-09T01:33:43;2.05;;;0.80;;
32172;SDS011;18679;45.190;5.722;2022-11-09T01:36:45;1.20;;;0.60;;
32172;SDS011;18679;45.190;5.722;2022-11-09T01:39:49;2.47;;;0.80;;
32172;SDS011;18679;45.190;5.722;2022-11-09T01:42:50;1.60;;;0.75;;
32172;SDS011;18679;45.190;5.722;2022-11-09T01:46:05;0.32;;;0.32;;
32172;SDS011;18679;45.190;5.722;2022-11-09T01:49:12;3.70;;;0.73;;
32172;SDS011;18679;45.190;5.722;2022-11-09T01:52:37;2.53;;;0.60;;
32172;SDS011;18679;45.190;5.722;2022-11-09T01:55:42;2.50;;;0.50;;
32172;SDS011;18679;45.190;5.722;2022-11-09T01:58:56;0.45;;;0.45;;
32172;SDS011;18679;45.190;5.722;2022-11-09T02:02:03;2.78;;;0.80;;
32172;SDS011;18679;45.190;5.722;2022-11-09T02:05:08;2.65;;;0.70;;
32172;SDS011;18679;45.190;5.722;2022-11-09T02:08:14;1.60;;;0.70;;
32172;SDS011;18679;45.190;5.722;2022-11-09T02:11:19;2.72;;;0.90;;
32172;SDS011;18679;45.190;5.722;2022-11-09T02:14:24;1.20;;;0.60;;
32172;SDS011;18679;45.190;5.722;2022-11-09T02:17:28;1.42;;;0.68;;
32172;SDS011;18679;45.190;5.722;2022-11-09T02:20:29;1.23;;;0.57;;
32172;SDS011;18679;45.190;5.722;2022-11-09T02:23:42;3.25;;;0.90;;
32172;SDS011;18679;45.190;5.722;2022-11-09T02:26:47;2.40;;;0.60;;
32172;SDS011;18679;45.190;5.722;2022-11-09T02:29:50;2.10;;;0.55;;
32172;SDS011;18679;45.190;5.722;2022-11-09T02:32:52;1.05;;;0.52;;
32172;SDS011;18679;45.190;5.722;2022-11-09T02:35:53;0.40;;;0.40;;
32172;SDS011;18679;45.190;5.722;2022-11-09T02:38:55;5.50;;;0.80;;
32172;SDS011;18679;45.190;5.722;2022-11-09T02:42:15;0.63;;;0.45;;
32172;SDS011;18679;45.190;5.722;2022-11-09T02:45:18;4.93;;;0.70;;
32172;SDS011;18679;45.190;5.722;2022-11-09T02:48:19;1.48;;;0.60;;
32172;SDS011;18679;45.190;5.722;2022-11-09T02:51:21;0.30;;;0.30;;
32172;SDS011;18679;45.190;5.722;2022-11-09T02:54:23;1.70;;;0.40;;
32172;SDS011;18679;45.190;5.722;2022-11-09T02:57:26;0.93;;;0.60;;
32172;SDS011;18679;45.190;5.722;2022-11-09T03:00:28;1.13;;;0.65;;
32172;SDS011;18679;45.190;5.722;2022-11-09T03:03:29;2.85;;;0.98;;
32172;SDS011;18679;45.190;5.722;2022-11-09T03:06:30;3.85;;;0.68;;
32172;SDS011;18679;45.190;5.722;2022-11-09T03:09:36;2.17;;;0.70;;
32172;SDS011;18679;45.190;5.722;2022-11-09T03:12:37;0.68;;;0.60;;
32172;SDS011;18679;45.190;5.722;2022-11-09T03:15:42;7.22;;;0.77;;
32172;SDS011;18679;45.190;5.722;2022-11-09T03:18:43;6.57;;;0.82;;
32172;SDS011;18679;45.190;5.722;2022-11-09T03:21:44;1.00;;;0.50;;
32172;SDS011;18679;45.190;5.722;2022-11-09T03:24:45;1.70;;;0.65;;
32172;SDS011;18679;45.190;5.722;2022-11-09T03:27:47;4.57;;;0.90;;
32172;SDS011;18679;45.190;5.722;2022-11-09T03:30:48;8.98;;;0.75;;
32172;SDS011;18679;45.190;5.722;2022-11-09T03:33:49;6.00;;;0.75;;
32172;SDS011;18679;45.190;5.722;2022-11-09T03:36:50;2.72;;;0.50;;
32172;SDS011;18679;45.190;5.722;2022-11-09T03:39:53;4.47;;;0.80;;
32172;SDS011;18679;45.190;5.722;2022-11-09T03:42:54;2.33;;;0.63;;
32172;SDS011;18679;45.190;5.722;2022-11-09T03:45:56;3.13;;;0.65;;
32172;SDS011;18679;45.190;5.722;2022-11-09T03:48:58;1.63;;;0.73;;
32172;SDS011;18679;45.190;5.722;2022-11-09T03:52:00;4.22;;;0.80;;
32172;SDS011;18679;45.190;5.722;2022-11-09T03:55:02;6.78;;;0.47;;
32172;SDS011;18679;45.190;5.722;2022-11-09T03:58:04;7.03;;;0.70;;
32172;SDS011;18679;45.190;5.722;2022-11-09T04:01:06;1.20;;;0.60;;
32172;SDS011;18679;45.190;5.722;2022-11-09T04:04:07;0.98;;;0.60;;
32172;SDS011;18679;45.190;5.722;2022-11-09T04:07:09;3.03;;;0.60;;
32172;SDS011;18679;45.190;5.722;2022-11-09T04:10:10;1.55;;;0.52;;
32172;SDS011;18679;45.190;5.722;2022-11-09T04:13:12;1.58;;;0.57;;
32172;SDS011;18679;45.190;5.722;2022-11-09T04:16:13;1.85;;;0.60;;
32172;SDS011;18679;45.190;5.722;2022-11-09T04:19:14;2.25;;;0.95;;
32172;SDS011;18679;45.190;5.722;2022-11-09T04:22:15;2.53;;;0.70;;
32172;SDS011;18679;45.190;5.722;2022-11-09T04:25:16;4.63;;;0.80;;
32172;SDS011;18679;45.190;5.722;2022-11-09T04:28:17;0.93;;;0.50;;
32172;SDS011;18679;45.190;5.722;2022-11-09T04:31:18;1.02;;;0.73;;
32172;SDS011;18679;45.190;5.722;2022-11-09T04:34:19;2.05;;;0.70;;
32172;SDS011;18679;45.190;5.722;2022-11-09T04:37:20;1.42;;;0.60;;
32172;SDS011;18679;45.190;5.722;2022-11-09T04:40:22;1.42;;;0.70;;
32172;SDS011;18679;45.190;5.722;2022-11-09T04:43:24;0.60;;;0.57;;
32172;SDS011;18679;45.190;5.722;2022-11-09T04:46:25;1.30;;;0.52;;
32172;SDS011;18679;45.190;5.722;2022-11-09T04:49:27;8.02;;;0.85;;
32172;SDS011;18679;45.190;5.722;2022-11-09T04:52:28;1.45;;;0.60;;
32172;SDS011;18679;45.190;5.722;2022-11-09T04:55:29;0.88;;;0.50;;
32172;SDS011;18679;45.190;5.722;2022-11-09T04:58:31;4.18;;;0.80;;
32172;SDS011;18679;45.190;5.722;2022-11-09T05:01:32;3.47;;;0.90;;
32172;SDS011;18679;45.190;5.722;2022-11-09T05:04:33;2.08;;;0.50;;
32172;SDS011;18679;45.190;5.722;2022-11-09T05:07:35;2.40;;;0.63;;
32172;SDS011;18679;45.190;5.722;2022-11-09T05:10:36;0.75;;;0.55;;
32172;SDS011;18679;45.190;5.722;2022-11-09T05:13:37;2.45;;;0.70;;
32172;SDS011;18679;45.190;5.722;2022-11-09T05:16:38;2.50;;;0.70;;
32172;SDS011;18679;45.190;5.722;2022-11-09T05:19:40;2.58;;;0.63;;
32172;SDS011;18679;45.190;5.722;2022-11-09T05:22:41;1.08;;;0.68;;
32172;SDS011;18679;45.190;5.722;2022-11-09T05:26:00;2.92;;;0.70;;
32172;SDS011;18679;45.190;5.722;2022-11-09T05:29:02;4.15;;;0.98;;
32172;SDS011;18679;45.190;5.722;2022-11-09T05:32:04;2.90;;;1.15;;
32172;SDS011;18679;45.190;5.722;2022-11-09T05:35:05;4.43;;;1.23;;
32172;SDS011;18679;45.190;5.722;2022-11-09T05:38:07;5.28;;;1.55;;
32172;SDS011;18679;45.190;5.722;2022-11-09T05:41:08;5.20;;;1.65;;
32172;SDS011;18679;45.190;5.722;2022-11-09T05:44:09;5.32;;;1.75;;
32172;SDS011;18679;45.190;5.722;2022-11-09T05:47:10;4.32;;;1.80;;
32172;SDS011;18679;45.190;5.722;2022-11-09T05:50:12;5.07;;;1.60;;
32172;SDS011;18679;45.190;5.722;2022-11-09T05:53:15;2.92;;;1.52;;
32172;SDS011;18679;45.190;5.722;2022-11-09T05:56:16;4.05;;;1.70;;
32172;SDS011;18679;45.190;5.722;2022-11-09T05:59:17;11.20;;;1.70;;
32172;SDS011;18679;45.190;5.722;2022-11-09T06:02:18;7.53;;;2.15;;
32172;SDS011;18679;45.190;5.722;2022-11-09T06:05:19;6.90;;;1.60;;
32172;SDS011;18679;45.190;5.722;2022-11-09T06:08:20;3.58;;;1.70;;
32172;SDS011;18679;45.190;5.722;2022-11-09T06:11:21;9.15;;;2.10;;
32172;SDS011;18679;45.190;5.722;2022-11-09T06:14:23;4.10;;;1.30;;
32172;SDS011;18679;45.190;5.722;2022-11-09T06:17:24;2.65;;;1.40;;
32172;SDS011;18679;45.190;5.722;2022-11-09T06:20:25;6.18;;;1.38;;
32172;SDS011;18679;45.190;5.722;2022-11-09T06:23:28;4.63;;;1.75;;
32172;SDS011;18679;45.190;5.722;2022-11-09T06:26:30;2.70;;;1.58;;
32172;SDS011;18679;45.190;5.722;2022-11-09T06:29:31;8.07;;;3.03;;
32172;SDS011;18679;45.190;5.722;2022-11-09T06:32:32;5.45;;;2.15;;
32172;SDS011;18679;45.190;5.722;2022-11-09T06:35:33;4.60;;;1.70;;
32172;SDS011;18679;45.190;5.722;2022-11-09T06:38:34;2.40;;;1.52;;
32172;SDS011;18679;45.190;5.722;2022-11-09T06:41:35;4.38;;;1.65;;
32172;SDS011;18679;45.190;5.722;2022-11-09T06:44:36;5.25;;;1.92;;
32172;SDS011;18679;45.190;5.722;2022-11-09T06:47:37;3.03;;;1.75;;
32172;SDS011;18679;45.190;5.722;2022-11-09T06:50:40;3.67;;;1.83;;
32172;SDS011;18679;45.190;5.722;2022-11-09T06:53:41;4.80;;;1.75;;
32172;SDS011;18679;45.190;5.722;2022-11-09T06:56:42;8.48;;;1.92;;
32172;SDS011;18679;45.190;5.722;2022-11-09T06:59:43;2.75;;;1.73;;
32172;SDS011;18679;45.190;5.722;2022-11-09T07:02:44;6.07;;;1.85;;
32172;SDS011;18679;45.190;5.722;2022-11-09T07:05:46;4.97;;;1.77;;
32172;SDS011;18679;45.190;5.722;2022-11-09T07:08:48;2.55;;;1.58;;
32172;SDS011;18679;45.190;5.722;2022-11-09T07:11:49;3.70;;;1.98;;
32172;SDS011;18679;45.190;5.722;2022-11-09T07:14:50;4.00;;;2.00;;
32172;SDS011;18679;45.190;5.722;2022-11-09T07:17:54;4.55;;;2.22;;
32172;SDS011;18679;45.190;5.722;2022-11-09T07:20:57;2.67;;;1.65;;
32172;SDS011;18679;45.190;5.722;2022-11-09T07:23:58;4.55;;;2.03;;
32172;SDS011;18679;45.190;5.722;2022-11-09T07:26:59;5.85;;;2.55;;
32172;SDS011;18679;45.190;5.722;2022-11-09T07:30:00;5.90;;;2.20;;
32172;SDS011;18679;45.190;5.722;2022-11-09T07:33:02;6.28;;;2.22;;
32172;SDS011;18679;45.190;5.722;2022-11-09T07:36:04;4.80;;;2.15;;
32172;SDS011;18679;45.190;5.722;2022-11-09T07:39:06;8.75;;;2.33;;
32172;SDS011;18679;45.190;5.722;2022-11-09T07:42:07;4.13;;;2.10;;
32172;SDS011;18679;45.190;5.722;2022-11-09T07:45:09;6.60;;;2.47;;
32172;SDS011;18679;45.190;5.722;2022-11-09T07:48:11;9.20;;;2.70;;
32172;SDS011;18679;45.190;5.722;2022-11-09T07:51:12;8.52;;;2.50;;
32172;SDS011;18679;45.190;5.722;2022-11-09T07:54:13;3.65;;;1.80;;
32172;SDS011;18679;45.190;5.722;2022-11-09T07:57:14;5.57;;;2.05;;
32172;SDS011;18679;45.190;5.722;2022-11-09T08:00:15;5.63;;;2.40;;
32172;SDS011;18679;45.190;5.722;2022-11-09T08:03:17;8.15;;;2.83;;
32172;SDS011;18679;45.190;5.722;2022-11-09T08:06:18;9.07;;;2.20;;
32172;SDS011;18679;45.190;5.722;2022-11-09T08:09:20;6.28;;;2.65;;
32172;SDS011;18679;45.190;5.722;2022-11-09T08:12:21;7.00;;;2.60;;
32172;SDS011;18679;45.190;5.722;2022-11-09T08:15:22;4.82;;;2.63;;
32172;SDS011;18679;45.190;5.722;2022-11-09T08:18:24;4.47;;;2.17;;
32172;SDS011;18679;45.190;5.722;2022-11-09T08:21:25;5.50;;;2.35;;
32172;SDS011;18679;45.190;5.722;2022-11-09T08:24:26;6.72;;;2.47;;
32172;SDS011;18679;45.190;5.722;2022-11-09T08:27:28;6.90;;;2.47;;
32172;SDS011;18679;45.190;5.722;2022-11-09T08:30:30;8.43;;;1.95;;
32172;SDS011;18679;45.190;5.722;2022-11-09T08:33:38;6.43;;;2.00;;
32172;SDS011;18679;45.190;5.722;2022-11-09T08:36:40;4.13;;;2.30;;
32172;SDS011;18679;45.190;5.722;2022-11-09T08:39:41;6.75;;;1.98;;
32172;SDS011;18679;45.190;5.722;2022-11-09T08:42:42;5.40;;;2.10;;
32172;SDS011;18679;45.190;5.722;2022-11-09T08:45:44;4.38;;;2.00;;
32172;SDS011;18679;45.190;5.722;2022-11-09T08:48:45;8.57;;;1.98;;
32172;SDS011;18679;45.190;5.722;2022-11-09T08:51:46;6.25;;;2.47;;
32172;SDS011;18679;45.190;5.722;2022-11-09T08:54:47;6.22;;;2.47;;
32172;SDS011;18679;45.190;5.722;2022-11-09T08:57:48;7.22;;;2.30;;
32172;SDS011;18679;45.190;5.722;2022-11-09T09:00:54;6.28;;;2.42;;
32172;SDS011;18679;45.190;5.722;2022-11-09T09:03:55;5.63;;;2.78;;
32172;SDS011;18679;45.190;5.722;2022-11-09T09:06:56;9.23;;;2.67;;
32172;SDS011;18679;45.190;5.722;2022-11-09T09:09:59;7.30;;;2.88;;
32172;SDS011;18679;45.190;5.722;2022-11-09T09:13:01;5.65;;;2.60;;
32172;SDS011;18679;45.190;5.722;2022-11-09T09:16:12;6.63;;;2.90;;
32172;SDS011;18679;45.190;5.722;2022-11-09T09:19:14;6.63;;;2.80;;
32172;SDS011;18679;45.190;5.722;2022-11-09T09:22:16;4.50;;;2.63;;
32172;SDS011;18679;45.190;5.722;2022-11-09T09:25:17;10.63;;;3.08;;
32172;SDS011;18679;45.190;5.722;2022-11-09T09:28:18;7.13;;;2.40;;
32172;SDS011;18679;45.190;5.722;2022-11-09T09:31:19;8.73;;;2.83;;
32172;SDS011;18679;45.190;5.722;2022-11-09T09:34:20;6.25;;;2.50;;
32172;SDS011;18679;45.190;5.722;2022-11-09T09:37:21;6.05;;;2.97;;
32172;SDS011;18679;45.190;5.722;2022-11-09T09:40:24;12.07;;;3.45;;
32172;SDS011;18679;45.190;5.722;2022-11-09T09:43:36;5.53;;;3.22;;
32172;SDS011;18679;45.190;5.722;2022-11-09T09:46:44;9.45;;;3.72;;
32172;SDS011;18679;45.190;5.722;2022-11-09T09:50:13;9.25;;;3.17;;
32172;SDS011;18679;45.190;5.722;2022-11-09T09:53:23;11.13;;;3.67;;
32172;SDS011;18679;45.190;5.722;2022-11-09T09:56:37;11.02;;;4.25;;
32172;SDS011;18679;45.190;5.722;2022-11-09T09:59:43;10.63;;;4.82;;
32172;SDS011;18679;45.190;5.722;2022-11-09T10:02:49;11.95;;;4.35;;
32172;SDS011;18679;45.190;5.722;2022-11-09T10:19:37;8.15;;;4.18;;
32172;SDS011;18679;45.190;5.722;2022-11-09T10:29:34;11.88;;;4.57;;
32172;SDS011;18679;45.190;5.722;2022-11-09T10:32:49;8.77;;;3.67;;
32172;SDS011;18679;45.190;5.722;2022-11-09T10:39:34;7.68;;;3.70;;
32172;SDS011;18679;45.190;5.722;2022-11-09T10:43:36;7.60;;;3.78;;
32172;SDS011;18679;45.190;5.722;2022-11-09T10:50:33;11.65;;;5.28;;
32172;SDS011;18679;45.190;5.722;2022-11-09T10:54:17;11.73;;;4.30;;
32172;SDS011;18679;45.190;5.722;2022-11-09T10:57:50;10.18;;;5.07;;
32172;SDS011;18679;45.190;5.722;2022-11-09T11:01:14;10.35;;;4.72;;
32172;SDS011;18679;45.190;5.722;2022-11-09T11:04:41;8.80;;;4.97;;
32172;SDS011;18679;45.190;5.722;2022-11-09T11:08:18;8.20;;;4.05;;
32172;SDS011;18679;45.190;5.722;2022-11-09T11:12:04;10.63;;;5.60;;
32172;SDS011;18679;45.190;5.722;2022-11-09T11:18:57;12.70;;;5.53;;
32172;SDS011;18679;45.190;5.722;2022-11-09T11:29:21;12.27;;;6.57;;
32172;SDS011;18679;45.190;5.722;2022-11-09T11:32:43;14.68;;;7.18;;
32172;SDS011;18679;45.190;5.722;2022-11-09T11:43:05;14.05;;;5.97;;
32172;SDS011;18679;45.190;5.722;2022-11-09T11:50:09;13.90;;;5.97;;
32172;SDS011;18679;45.190;5.722;2022-11-09T12:01:02;8.13;;;4.70;;
32172;SDS011;18679;45.190;5.722;2022-11-09T12:26:18;8.75;;;5.53;;
32172;SDS011;18679;45.190;5.722;2022-11-09T12:30:05;15.07;;;5.80;;
32172;SDS011;18679;45.190;5.722;2022-11-09T12:37:52;10.43;;;4.93;;
32172;SDS011;18679;45.190;5.722;2022-11-09T12:41:17;11.80;;;4.90;;
32172;SDS011;18679;45.190;5.722;2022-11-09T12:44:57;9.70;;;4.30;;
32172;SDS011;18679;45.190;5.722;2022-11-09T12:48:26;11.95;;;4.32;;
32172;SDS011;18679;45.190;5.722;2022-11-09T12:51:48;13.70;;;5.30;;
32172;SDS011;18679;45.190;5.722;2022-11-09T12:55:11;12.82;;;4.65;;
32172;SDS011;18679;45.190;5.722;2022-11-09T12:58:34;8.10;;;4.70;;
32172;SDS011;18679;45.190;5.722;2022-11-09T13:01:57;10.18;;;4.20;;
32172;SDS011;18679;45.190;5.722;2022-11-09T13:05:34;11.63;;;4.50;;
32172;SDS011;18679;45.190;5.722;2022-11-09T13:08:56;9.63;;;4.22;;
32172;SDS011;18679;45.190;5.722;2022-11-09T13:12:36;10.77;;;3.72;;
32172;SDS011;18679;45.190;5.722;2022-11-09T13:29:50;8.90;;;3.83;;
32172;SDS011;18679;45.190;5.722;2022-11-09T13:36:43;7.65;;;3.00;;
32172;SDS011;18679;45.190;5.722;2022-11-09T13:44:05;7.53;;;3.33;;
32172;SDS011;18679;45.190;5.722;2022-11-09T13:47:33;6.53;;;3.35;;
32172;SDS011;18679;45.190;5.722;2022-11-09T13:50:55;8.70;;;4.15;;
32172;SDS011;18679;45.190;5.722;2022-11-09T13:57:51;11.23;;;3.47;;
32172;SDS011;18679;45.190;5.722;2022-11-09T14:01:32;10.50;;;4.57;;
32172;SDS011;18679;45.190;5.722;2022-11-09T14:04:54;8.25;;;4.22;;
32172;SDS011;18679;45.190;5.722;2022-11-09T14:08:24;11.43;;;4.38;;
32172;SDS011;18679;45.190;5.722;2022-11-09T14:19:05;7.75;;;3.50;;
32172;SDS011;18679;45.190;5.722;2022-11-09T14:22:37;6.88;;;2.97;;
32172;SDS011;18679;45.190;5.722;2022-11-09T14:26:05;12.27;;;4.45;;
32172;SDS011;18679;45.190;5.722;2022-11-09T14:29:34;10.68;;;4.22;;
32172;SDS011;18679;45.190;5.722;2022-11-09T14:32:56;5.85;;;4.03;;
32172;SDS011;18679;45.190;5.722;2022-11-09T14:36:17;9.88;;;4.72;;
32172;SDS011;18679;45.190;5.722;2022-11-09T14:39:36;10.07;;;5.18;;
32172;SDS011;18679;45.190;5.722;2022-11-09T14:46:39;9.77;;;4.85;;
32172;SDS011;18679;45.190;5.722;2022-11-09T14:49:58;10.60;;;4.93;;
32172;SDS011;18679;45.190;5.722;2022-11-09T14:53:26;7.47;;;4.68;;
32172;SDS011;18679;45.190;5.722;2022-11-09T14:56:51;9.85;;;5.13;;
32172;SDS011;18679;45.190;5.722;2022-11-09T15:00:26;6.80;;;4.60;;
32172;SDS011;18679;45.190;5.722;2022-11-09T15:04:03;9.63;;;4.43;;
32172;SDS011;18679;45.190;5.722;2022-11-09T15:07:27;9.77;;;4.72;;
32172;SDS011;18679;45.190;5.722;2022-11-09T15:10:52;11.95;;;4.82;;
32172;SDS011;18679;45.190;5.722;2022-11-09T15:17:43;7.00;;;4.32;;
32172;SDS011;18679;45.190;5.722;2022-11-09T15:21:18;8.10;;;4.25;;
32172;SDS011;18679;45.190;5.722;2022-11-09T15:24:49;10.55;;;5.32;;
32172;SDS011;18679;45.190;5.722;2022-11-09T15:31:31;9.60;;;5.00;;
32172;SDS011;18679;45.190;5.722;2022-11-09T15:34:52;11.00;;;4.63;;
32172;SDS011;18679;45.190;5.722;2022-11-09T15:38:30;11.75;;;4.53;;
32172;SDS011;18679;45.190;5.722;2022-11-09T15:41:53;10.90;;;5.00;;
32172;SDS011;18679;45.190;5.722;2022-11-09T15:45:16;10.00;;;4.30;;
32172;SDS011;18679;45.190;5.722;2022-11-09T15:48:37;8.80;;;4.25;;
32172;SDS011;18679;45.190;5.722;2022-11-09T15:51:57;9.88;;;4.70;;
32172;SDS011;18679;45.190;5.722;2022-11-09T15:55:17;10.45;;;4.57;;
32172;SDS011;18679;45.190;5.722;2022-11-09T15:58:41;9.57;;;3.95;;
32172;SDS011;18679;45.190;5.722;2022-11-09T16:02:01;7.60;;;4.07;;
32172;SDS011;18679;45.190;5.722;2022-11-09T16:05:21;7.22;;;4.28;;
32172;SDS011;18679;45.190;5.722;2022-11-09T16:08:46;10.02;;;5.47;;
32172;SDS011;18679;45.190;5.722;2022-11-09T16:12:06;10.40;;;5.20;;
32172;SDS011;18679;45.190;5.722;2022-11-09T16:15:26;17.52;;;8.15;;
32172;SDS011;18679;45.190;5.722;2022-11-09T16:18:47;15.05;;;6.88;;
32172;SDS011;18679;45.190;5.722;2022-11-09T16:22:08;13.38;;;6.28;;
32172;SDS011;18679;45.190;5.722;2022-11-09T16:25:29;14.70;;;6.07;;
32172;SDS011;18679;45.190;5.722;2022-11-09T16:28:49;8.88;;;5.05;;
32172;SDS011;18679;45.190;5.722;2022-11-09T16:32:09;11.63;;;5.65;;
32172;SDS011;18679;45.190;5.722;2022-11-09T16:35:28;9.48;;;5.10;;
32172;SDS011;18679;45.190;5.722;2022-11-09T16:38:49;8.15;;;5.22;;
32172;SDS011;18679;45.190;5.722;2022-11-09T16:42:10;7.50;;;4.35;;
32172;SDS011;18679;45.190;5.722;2022-11-09T16:45:32;11.43;;;5.82;;
32172;SDS011;18679;45.190;5.722;2022-11-09T16:48:52;7.05;;;4.93;;
32172;SDS011;18679;45.190;5.722;2022-11-09T16:52:12;6.60;;;4.18;;
32172;SDS011;18679;45.190;5.722;2022-11-09T16:55:32;7.22;;;3.80;;
32172;SDS011;18679;45.190;5.722;2022-11-09T16:58:52;7.80;;;3.80;;
32172;SDS011;18679;45.190;5.722;2022-11-09T17:02:12;7.03;;;4.15;;
32172;SDS011;18679;45.190;5.722;2022-11-09T17:05:32;12.07;;;4.25;;
32172;SDS011;18679;45.190;5.722;2022-11-09T17:08:54;13.73;;;4.45;;
32172;SDS011;18679;45.190;5.722;2022-11-09T17:12:14;9.85;;;4.13;;
32172;SDS011;18679;45.190;5.722;2022-11-09T17:15:38;7.65;;;4.05;;
32172;SDS011;18679;45.190;5.722;2022-11-09T17:19:02;10.00;;;4.30;;
32172;SDS011;18679;45.190;5.722;2022-11-09T17:22:23;7.88;;;5.28;;
32172;SDS011;18679;45.190;5.722;2022-11-09T17:26:00;13.82;;;5.45;;
32172;SDS011;18679;45.190;5.722;2022-11-09T17:29:21;12.45;;;6.32;;
32172;SDS011;18679;45.190;5.722;2022-11-09T17:32:43;13.45;;;5.32;;
32172;SDS011;18679;45.190;5.722;2022-11-09T17:36:06;13.48;;;6.85;;
32172;SDS011;18679;45.190;5.722;2022-11-09T17:39:28;8.45;;;4.55;;
32172;SDS011;18679;45.190;5.722;2022-11-09T17:42:48;12.73;;;5.70;;
32172;SDS011;18679;45.190;5.722;2022-11-09T17:46:09;9.45;;;5.60;;
32172;SDS011;18679;45.190;5.722;2022-11-09T17:49:34;13.48;;;5.38;;
32172;SDS011;18679;45.190;5.722;2022-11-09T17:52:53;9.77;;;5.28;;
32172;SDS011;18679;45.190;5.722;2022-11-09T17:56:13;8.95;;;4.45;;
32172;SDS011;18679;45.190;5.722;2022-11-09T17:59:33;10.88;;;5.82;;
32172;SDS011;18679;45.190;5.722;2022-11-09T18:02:55;8.82;;;5.28;;
32172;SDS011;18679;45.190;5.722;2022-11-09T18:06:16;12.25;;;6.47;;
32172;SDS011;18679;45.190;5.722;2022-11-09T18:09:37;14.63;;;6.18;;
32172;SDS011;18679;45.190;5.722;2022-11-09T18:12:57;15.07;;;6.25;;
32172;SDS011;18679;45.190;5.722;2022-11-09T18:16:17;11.35;;;5.80;;
32172;SDS011;18679;45.190;5.722;2022-11-09T18:19:37;11.00;;;5.55;;
32172;SDS011;18679;45.190;5.722;2022-11-09T18:22:57;11.35;;;5.65;;
32172;SDS011;18679;45.190;5.722;2022-11-09T18:26:16;11.73;;;4.70;;
32172;SDS011;18679;45.190;5.722;2022-11-09T18:29:36;10.52;;;5.20;;
32172;SDS011;18679;45.190;5.722;2022-11-09T18:32:56;8.85;;;5.00;;
32172;SDS011;18679;45.190;5.722;2022-11-09T18:36:16;11.70;;;6.13;;
32172;SDS011;18679;45.190;5.722;2022-11-09T18:39:38;16.42;;;6.07;;
32172;SDS011;18679;45.190;5.722;2022-11-09T18:42:58;11.90;;;5.63;;
32172;SDS011;18679;45.190;5.722;2022-11-09T18:46:18;7.78;;;5.03;;
32172;SDS011;18679;45.190;5.722;2022-11-09T18:49:39;10.98;;;5.30;;
32172;SDS011;18679;45.190;5.722;2022-11-09T18:52:59;8.10;;;4.90;;
32172;SDS011;18679;45.190;5.722;2022-11-09T18:56:22;8.52;;;4.22;;
32172;SDS011;18679;45.190;5.722;2022-11-09T18:59:42;7.25;;;4.22;;
32172;SDS011;18679;45.190;5.722;2022-11-09T19:03:02;14.18;;;6.47;;
32172;SDS011;18679;45.190;5.722;2022-11-09T19:06:21;11.55;;;5.43;;
32172;SDS011;18679;45.190;5.722;2022-11-09T19:09:42;14.13;;;6.30;;
32172;SDS011;18679;45.190;5.722;2022-11-09T19:13:02;8.50;;;5.15;;
32172;SDS011;18679;45.190;5.722;2022-11-09T19:16:22;8.48;;;5.18;;
32172;SDS011;18679;45.190;5.722;2022-11-09T19:19:43;8.73;;;5.55;;
32172;SDS011;18679;45.190;5.722;2022-11-09T19:23:02;14.77;;;6.22;;
32172;SDS011;18679;45.190;5.722;2022-11-09T19:26:21;22.08;;;11.57;;
32172;SDS011;18679;45.190;5.722;2022-11-09T19:29:41;23.58;;;10.55;;
32172;SDS011;18679;45.190;5.722;2022-11-09T19:33:00;24.83;;;9.88;;
32172;SDS011;18679;45.190;5.722;2022-11-09T19:36:27;17.48;;;7.93;;
32172;SDS011;18679;45.190;5.722;2022-11-09T19:39:47;15.48;;;8.00;;
32172;SDS011;18679;45.190;5.722;2022-11-09T19:43:07;16.65;;;7.45;;
32172;SDS011;18679;45.190;5.722;2022-11-09T19:46:27;15.55;;;8.23;;
32172;SDS011;18679;45.190;5.722;2022-11-09T19:49:51;21.58;;;9.70;;
32172;SDS011;18679;45.190;5.722;2022-11-09T19:53:10;16.30;;;7.07;;
32172;SDS011;18679;45.190;5.722;2022-11-09T19:56:30;16.50;;;8.00;;
32172;SDS011;18679;45.190;5.722;2022-11-09T19:59:50;16.52;;;8.07;;
32172;SDS011;18679;45.190;5.722;2022-11-09T20:03:10;12.45;;;6.90;;
32172;SDS011;18679;45.190;5.722;2022-11-09T20:06:29;13.60;;;7.07;;
32172;SDS011;18679;45.190;5.722;2022-11-09T20:09:49;11.85;;;6.78;;
32172;SDS011;18679;45.190;5.722;2022-11-09T20:13:09;17.20;;;7.75;;
32172;SDS011;18679;45.190;5.722;2022-11-09T20:16:30;16.33;;;7.32;;
32172;SDS011;18679;45.190;5.722;2022-11-09T20:19:51;21.08;;;7.95;;
32172;SDS011;18679;45.190;5.722;2022-11-09T20:23:10;21.42;;;8.80;;
32172;SDS011;18679;45.190;5.722;2022-11-09T20:26:30;20.02;;;9.48;;
32172;SDS011;18679;45.190;5.722;2022-11-09T20:29:50;20.40;;;10.05;;
32172;SDS011;18679;45.190;5.722;2022-11-09T20:33:09;25.40;;;9.50;;
32172;SDS011;18679;45.190;5.722;2022-11-09T20:36:29;19.90;;;10.15;;
32172;SDS011;18679;45.190;5.722;2022-11-09T20:39:48;16.10;;;8.20;;
32172;SDS011;18679;45.190;5.722;2022-11-09T20:43:09;15.93;;;8.48;;
32172;SDS011;18679;45.190;5.722;2022-11-09T20:46:29;25.20;;;9.73;;
32172;SDS011;18679;45.190;5.722;2022-11-09T20:49:48;27.67;;;9.88;;
32172;SDS011;18679;45.190;5.722;2022-11-09T20:53:07;20.13;;;9.48;;
32172;SDS011;18679;45.190;5.722;2022-11-09T20:56:27;22.20;;;10.02;;
32172;SDS011;18679;45.190;5.722;2022-11-09T20:59:46;17.70;;;9.40;;
32172;SDS011;18679;45.190;5.722;2022-11-09T21:03:07;18.75;;;8.73;;
32172;SDS011;18679;45.190;5.722;2022-11-09T21:06:26;17.17;;;9.70;;
32172;SDS011;18679;45.190;5.722;2022-11-09T21:09:46;17.13;;;8.77;;
32172;SDS011;18679;45.190;5.722;2022-11-09T21:13:06;14.63;;;8.18;;
32172;SDS011;18679;45.190;5.722;2022-11-09T21:16:26;17.85;;;9.13;;